sensor_id;sensor_type;location;lat;lon;timestamp;P1;durP1;ratioP1;P2;durP2;ratioP2
27424;SDS011;15244;49.088;11.886;2023-12-20T00:04:40;4.38;;;3.95;;
27424;SDS011;15244;49.088;11.886;2023-12-20T00:09:42;4.15;;;3.60;;
27424;SDS011;15244;49.088;11.886;2023-12-20T00:14:45;4.13;;;3.72;;
27424;SDS011;15244;49.088;11.886;2023-12-20T00:19:48;4.38;;;3.97;;
27424;SDS011;15244;49.088;11.886;2023-12-20T00:24:56;5.50;;;4.95;;
27424;SDS011;15244;49.088;11.886;2023-12-20T00:30:02;6.10;;;4.65;;
27424;SDS011;15244;49.088;11.886;2023-12-20T00:35:03;4.40;;;4.10;;
27424;SDS011;15244;49.088;11.886;2023-12-20T00:40:10;5.68;;;4.47;;
27424;SDS011;15244;49.088;11.886;2023-12-20T00:45:14;4.57;;;4.18;;
27424;SDS011;15244;49.088;11.886;2023-12-20T00:50:17;4.68;;;4.28;;
27424;SDS011;15244;49.088;11.886;2023-12-20T00:55:20;5.35;;;4.78;;
27424;SDS011;15244;49.088;11.886;2023-12-20T01:00:22;5.43;;;4.93;;
27424;SDS011;15244;49.088;11.886;2023-12-20T01:05:25;6.65;;;4.55;;
27424;SDS011;15244;49.088;11.886;2023-12-20T01:10:36;5.63;;;4.85;;
27424;SDS011;15244;49.088;11.886;2023-12-20T01:15:40;5.55;;;5.05;;
27424;SDS011;15244;49.088;11.886;2023-12-20T01:20:46;5.90;;;5.30;;
27424;SDS011;15244;49.088;11.886;2023-12-20T01:25:48;5.60;;;5.10;;
27424;SDS011;15244;49.088;11.886;2023-12-20T01:30:49;5.78;;;5.18;;
27424;SDS011;15244;49.088;11.886;2023-12-20T01:35:53;5.40;;;4.95;;
27424;SDS011;15244;49.088;11.886;2023-12-20T01:40:55;6.25;;;5.65;;
27424;SDS011;15244;49.088;11.886;2023-12-20T01:45:57;7.13;;;6.47;;
27424;SDS011;15244;49.088;11.886;2023-12-20T01:50:59;7.32;;;6.57;;
27424;SDS011;15244;49.088;11.886;2023-12-20T01:56:11;7.65;;;6.72;;
27424;SDS011;15244;49.088;11.886;2023-12-20T02:01:13;7.88;;;7.18;;
27424;SDS011;15244;49.088;11.886;2023-12-20T02:06:20;8.48;;;7.57;;
27424;SDS011;15244;49.088;11.886;2023-12-20T02:11:28;8.50;;;7.68;;
27424;SDS011;15244;49.088;11.886;2023-12-20T02:16:34;7.97;;;7.28;;
27424;SDS011;15244;49.088;11.886;2023-12-20T02:21:38;8.20;;;7.40;;
27424;SDS011;15244;49.088;11.886;2023-12-20T02:26:41;8.32;;;6.72;;
27424;SDS011;15244;49.088;11.886;2023-12-20T02:31:49;8.55;;;7.28;;
27424;SDS011;15244;49.088;11.886;2023-12-20T02:36:51;10.35;;;8.15;;
27424;SDS011;15244;49.088;11.886;2023-12-20T02:41:55;8.18;;;7.25;;
27424;SDS011;15244;49.088;11.886;2023-12-20T02:46:58;7.43;;;6.72;;
27424;SDS011;15244;49.088;11.886;2023-12-20T02:52:02;7.93;;;7.13;;
27424;SDS011;15244;49.088;11.886;2023-12-20T02:57:04;8.10;;;7.30;;
27424;SDS011;15244;49.088;11.886;2023-12-20T03:02:07;7.30;;;6.60;;
27424;SDS011;15244;49.088;11.886;2023-12-20T03:07:09;8.90;;;6.30;;
27424;SDS011;15244;49.088;11.886;2023-12-20T03:12:11;7.00;;;6.38;;
27424;SDS011;15244;49.088;11.886;2023-12-20T03:17:12;8.27;;;7.45;;
27424;SDS011;15244;49.088;11.886;2023-12-20T03:22:16;7.47;;;6.40;;
27424;SDS011;15244;49.088;11.886;2023-12-20T03:27:22;7.85;;;6.60;;
27424;SDS011;15244;49.088;11.886;2023-12-20T03:32:31;7.00;;;6.40;;
27424;SDS011;15244;49.088;11.886;2023-12-20T03:37:33;6.90;;;6.20;;
27424;SDS011;15244;49.088;11.886;2023-12-20T03:42:34;6.80;;;6.20;;
27424;SDS011;15244;49.088;11.886;2023-12-20T03:47:38;6.00;;;5.47;;
27424;SDS011;15244;49.088;11.886;2023-12-20T03:52:40;6.47;;;5.93;;
27424;SDS011;15244;49.088;11.886;2023-12-20T03:57:44;6.50;;;5.90;;
27424;SDS011;15244;49.088;11.886;2023-12-20T04:02:49;5.78;;;5.30;;
27424;SDS011;15244;49.088;11.886;2023-12-20T04:07:56;5.97;;;5.00;;
27424;SDS011;15244;49.088;11.886;2023-12-20T04:12:58;5.15;;;4.75;;
27424;SDS011;15244;49.088;11.886;2023-12-20T04:18:04;4.32;;;4.03;;
27424;SDS011;15244;49.088;11.886;2023-12-20T04:23:06;3.67;;;3.47;;
27424;SDS011;15244;49.088;11.886;2023-12-20T04:28:11;3.38;;;3.08;;
27424;SDS011;15244;49.088;11.886;2023-12-20T04:33:18;2.72;;;2.53;;
27424;SDS011;15244;49.088;11.886;2023-12-20T04:38:19;1.73;;;1.63;;
27424;SDS011;15244;49.088;11.886;2023-12-20T04:43:21;2.95;;;1.40;;
27424;SDS011;15244;49.088;11.886;2023-12-20T04:48:23;1.75;;;1.65;;
27424;SDS011;15244;49.088;11.886;2023-12-20T04:53:29;1.27;;;1.27;;
27424;SDS011;15244;49.088;11.886;2023-12-20T04:58:38;1.00;;;1.00;;
27424;SDS011;15244;49.088;11.886;2023-12-20T05:03:42;1.52;;;1.42;;
27424;SDS011;15244;49.088;11.886;2023-12-20T05:08:44;1.02;;;1.02;;
27424;SDS011;15244;49.088;11.886;2023-12-20T05:13:55;0.88;;;0.88;;
27424;SDS011;15244;49.088;11.886;2023-12-20T05:18:57;0.93;;;0.93;;
27424;SDS011;15244;49.088;11.886;2023-12-20T05:24:00;1.20;;;1.20;;
27424;SDS011;15244;49.088;11.886;2023-12-20T05:29:02;0.82;;;0.82;;
27424;SDS011;15244;49.088;11.886;2023-12-20T05:34:06;1.42;;;1.33;;
27424;SDS011;15244;49.088;11.886;2023-12-20T05:39:10;0.85;;;0.85;;
27424;SDS011;15244;49.088;11.886;2023-12-20T05:44:12;1.00;;;1.00;;
27424;SDS011;15244;49.088;11.886;2023-12-20T05:49:13;1.00;;;1.00;;
27424;SDS011;15244;49.088;11.886;2023-12-20T05:54:17;0.60;;;0.60;;
27424;SDS011;15244;49.088;11.886;2023-12-20T05:59:22;0.70;;;0.70;;
27424;SDS011;15244;49.088;11.886;2023-12-20T06:04:26;0.50;;;0.50;;
27424;SDS011;15244;49.088;11.886;2023-12-20T06:09:28;0.60;;;0.60;;
27424;SDS011;15244;49.088;11.886;2023-12-20T06:14:33;1.60;;;0.50;;
27424;SDS011;15244;49.088;11.886;2023-12-20T06:19:35;0.60;;;0.60;;
27424;SDS011;15244;49.088;11.886;2023-12-20T06:24:40;0.60;;;0.60;;
27424;SDS011;15244;49.088;11.886;2023-12-20T06:29:42;0.50;;;0.50;;
27424;SDS011;15244;49.088;11.886;2023-12-20T06:34:47;0.60;;;0.50;;
27424;SDS011;15244;49.088;11.886;2023-12-20T06:40:00;0.30;;;0.30;;
27424;SDS011;15244;49.088;11.886;2023-12-20T06:45:05;0.70;;;0.60;;
27424;SDS011;15244;49.088;11.886;2023-12-20T06:50:12;0.30;;;0.30;;
27424;SDS011;15244;49.088;11.886;2023-12-20T06:55:15;0.75;;;0.52;;
27424;SDS011;15244;49.088;11.886;2023-12-20T07:00:21;0.32;;;0.32;;
27424;SDS011;15244;49.088;11.886;2023-12-20T07:05:26;0.40;;;0.40;;
27424;SDS011;15244;49.088;11.886;2023-12-20T07:10:28;0.45;;;0.45;;
27424;SDS011;15244;49.088;11.886;2023-12-20T07:15:30;0.30;;;0.30;;
27424;SDS011;15244;49.088;11.886;2023-12-20T07:20:39;0.20;;;0.20;;
27424;SDS011;15244;49.088;11.886;2023-12-20T07:25:47;0.40;;;0.40;;
27424;SDS011;15244;49.088;11.886;2023-12-20T07:30:49;0.50;;;0.50;;
27424;SDS011;15244;49.088;11.886;2023-12-20T07:35:51;0.40;;;0.40;;
27424;SDS011;15244;49.088;11.886;2023-12-20T07:40:56;0.50;;;0.50;;
27424;SDS011;15244;49.088;11.886;2023-12-20T07:46:01;0.50;;;0.50;;
27424;SDS011;15244;49.088;11.886;2023-12-20T07:51:05;0.50;;;0.50;;
27424;SDS011;15244;49.088;11.886;2023-12-20T07:56:14;0.40;;;0.40;;
27424;SDS011;15244;49.088;11.886;2023-12-20T08:01:23;0.40;;;0.40;;
27424;SDS011;15244;49.088;11.886;2023-12-20T08:06:25;0.40;;;0.40;;
27424;SDS011;15244;49.088;11.886;2023-12-20T08:11:33;0.45;;;0.40;;
27424;SDS011;15244;49.088;11.886;2023-12-20T08:16:35;0.30;;;0.30;;
27424;SDS011;15244;49.088;11.886;2023-12-20T08:21:37;0.50;;;0.50;;
27424;SDS011;15244;49.088;11.886;2023-12-20T08:26:39;0.40;;;0.40;;
27424;SDS011;15244;49.088;11.886;2023-12-20T08:31:42;0.40;;;0.40;;
27424;SDS011;15244;49.088;11.886;2023-12-20T08:36:44;0.40;;;0.40;;
27424;SDS011;15244;49.088;11.886;2023-12-20T08:41:52;0.50;;;0.50;;
27424;SDS011;15244;49.088;11.886;2023-12-20T08:46:56;0.30;;;0.30;;
27424;SDS011;15244;49.088;11.886;2023-12-20T08:51:58;0.40;;;0.40;;
27424;SDS011;15244;49.088;11.886;2023-12-20T08:57:08;0.35;;;0.35;;
27424;SDS011;15244;49.088;11.886;2023-12-20T09:02:11;0.60;;;0.60;;
27424;SDS011;15244;49.088;11.886;2023-12-20T09:07:24;0.60;;;0.60;;
27424;SDS011;15244;49.088;11.886;2023-12-20T09:12:29;0.85;;;0.85;;
27424;SDS011;15244;49.088;11.886;2023-12-20T09:17:33;1.10;;;1.10;;
27424;SDS011;15244;49.088;11.886;2023-12-20T09:22:38;1.57;;;1.50;;
27424;SDS011;15244;49.088;11.886;2023-12-20T09:27:44;1.73;;;1.63;;
27424;SDS011;15244;49.088;11.886;2023-12-20T09:32:48;2.10;;;2.00;;
27424;SDS011;15244;49.088;11.886;2023-12-20T09:37:50;1.80;;;1.70;;
27424;SDS011;15244;49.088;11.886;2023-12-20T09:42:58;1.90;;;1.80;;
27424;SDS011;15244;49.088;11.886;2023-12-20T09:48:05;1.80;;;1.70;;
27424;SDS011;15244;49.088;11.886;2023-12-20T09:53:11;1.75;;;1.65;;
27424;SDS011;15244;49.088;11.886;2023-12-20T10:03:24;1.63;;;1.52;;
27424;SDS011;15244;49.088;11.886;2023-12-20T10:08:27;1.50;;;1.50;;
27424;SDS011;15244;49.088;11.886;2023-12-20T10:13:31;1.48;;;1.38;;
27424;SDS011;15244;49.088;11.886;2023-12-20T10:18:32;1.30;;;1.30;;
27424;SDS011;15244;49.088;11.886;2023-12-20T10:23:39;1.67;;;1.58;;
27424;SDS011;15244;49.088;11.886;2023-12-20T10:28:43;1.50;;;1.42;;
27424;SDS011;15244;49.088;11.886;2023-12-20T10:33:45;1.13;;;1.13;;
27424;SDS011;15244;49.088;11.886;2023-12-20T10:38:49;1.70;;;1.60;;
27424;SDS011;15244;49.088;11.886;2023-12-20T10:44:01;1.48;;;1.38;;
27424;SDS011;15244;49.088;11.886;2023-12-20T10:49:04;1.73;;;1.63;;
27424;SDS011;15244;49.088;11.886;2023-12-20T10:54:12;1.80;;;1.70;;
27424;SDS011;15244;49.088;11.886;2023-12-20T10:59:15;3.63;;;1.70;;
27424;SDS011;15244;49.088;11.886;2023-12-20T11:04:25;2.03;;;1.50;;
27424;SDS011;15244;49.088;11.886;2023-12-20T11:09:57;1.33;;;1.17;;
27424;SDS011;15244;49.088;11.886;2023-12-20T11:15:05;3.05;;;1.77;;
27424;SDS011;15244;49.088;11.886;2023-12-20T11:20:08;2.33;;;1.85;;
27424;SDS011;15244;49.088;11.886;2023-12-20T11:30:21;2.53;;;1.20;;
27424;SDS011;15244;49.088;11.886;2023-12-20T11:35:22;3.30;;;1.30;;
27424;SDS011;15244;49.088;11.886;2023-12-20T11:40:27;2.15;;;1.20;;
27424;SDS011;15244;49.088;11.886;2023-12-20T11:45:35;3.95;;;1.13;;
27424;SDS011;15244;49.088;11.886;2023-12-20T11:50:37;3.13;;;1.23;;
27424;SDS011;15244;49.088;11.886;2023-12-20T11:55:47;1.95;;;1.10;;
27424;SDS011;15244;49.088;11.886;2023-12-20T12:00:52;6.50;;;1.33;;
27424;SDS011;15244;49.088;11.886;2023-12-20T12:05:54;1.33;;;0.98;;
27424;SDS011;15244;49.088;11.886;2023-12-20T12:10:58;2.72;;;1.10;;
27424;SDS011;15244;49.088;11.886;2023-12-20T12:16:01;3.15;;;1.27;;
27424;SDS011;15244;49.088;11.886;2023-12-20T12:21:06;2.63;;;1.30;;
27424;SDS011;15244;49.088;11.886;2023-12-20T12:26:18;2.45;;;1.20;;
27424;SDS011;15244;49.088;11.886;2023-12-20T12:31:22;2.47;;;1.55;;
27424;SDS011;15244;49.088;11.886;2023-12-20T12:36:29;3.40;;;1.10;;
27424;SDS011;15244;49.088;11.886;2023-12-20T12:41:36;2.03;;;1.07;;
27424;SDS011;15244;49.088;11.886;2023-12-20T12:46:37;2.05;;;1.00;;
27424;SDS011;15244;49.088;11.886;2023-12-20T12:51:42;1.10;;;1.10;;
27424;SDS011;15244;49.088;11.886;2023-12-20T12:56:46;1.98;;;1.00;;
27424;SDS011;15244;49.088;11.886;2023-12-20T13:01:51;2.05;;;0.90;;
27424;SDS011;15244;49.088;11.886;2023-12-20T13:07:13;2.10;;;1.20;;
27424;SDS011;15244;49.088;11.886;2023-12-20T13:12:15;4.78;;;1.40;;
27424;SDS011;15244;49.088;11.886;2023-12-20T13:17:19;4.88;;;1.40;;
27424;SDS011;15244;49.088;11.886;2023-12-20T13:22:23;2.00;;;1.48;;
27424;SDS011;15244;49.088;11.886;2023-12-20T13:27:27;2.88;;;1.50;;
27424;SDS011;15244;49.088;11.886;2023-12-20T13:32:31;2.08;;;1.20;;
27424;SDS011;15244;49.088;11.886;2023-12-20T13:37:36;3.00;;;1.48;;
27424;SDS011;15244;49.088;11.886;2023-12-20T13:42:43;1.30;;;1.20;;
27424;SDS011;15244;49.088;11.886;2023-12-20T13:47:47;1.05;;;0.95;;
27424;SDS011;15244;49.088;11.886;2023-12-20T13:52:54;5.53;;;1.35;;
27424;SDS011;15244;49.088;11.886;2023-12-20T13:57:58;1.52;;;1.00;;
27424;SDS011;15244;49.088;11.886;2023-12-20T14:03:05;2.80;;;1.27;;
27424;SDS011;15244;49.088;11.886;2023-12-20T14:08:10;3.38;;;1.63;;
27424;SDS011;15244;49.088;11.886;2023-12-20T14:13:17;3.45;;;1.20;;
27424;SDS011;15244;49.088;11.886;2023-12-20T14:18:19;4.13;;;1.42;;
27424;SDS011;15244;49.088;11.886;2023-12-20T14:23:23;3.45;;;1.30;;
27424;SDS011;15244;49.088;11.886;2023-12-20T14:28:26;1.20;;;1.10;;
27424;SDS011;15244;49.088;11.886;2023-12-20T14:33:29;1.73;;;1.27;;
27424;SDS011;15244;49.088;11.886;2023-12-20T14:38:31;2.30;;;1.30;;
27424;SDS011;15244;49.088;11.886;2023-12-20T14:43:33;3.00;;;1.17;;
27424;SDS011;15244;49.088;11.886;2023-12-20T14:48:34;3.00;;;1.33;;
27424;SDS011;15244;49.088;11.886;2023-12-20T14:53:36;4.32;;;1.30;;
27424;SDS011;15244;49.088;11.886;2023-12-20T14:58:44;6.20;;;2.13;;
27424;SDS011;15244;49.088;11.886;2023-12-20T15:03:46;3.47;;;2.35;;
27424;SDS011;15244;49.088;11.886;2023-12-20T15:08:50;3.65;;;1.88;;
27424;SDS011;15244;49.088;11.886;2023-12-20T15:13:56;3.92;;;1.52;;
27424;SDS011;15244;49.088;11.886;2023-12-20T15:19:02;3.83;;;1.92;;
27424;SDS011;15244;49.088;11.886;2023-12-20T15:24:05;5.30;;;1.60;;
27424;SDS011;15244;49.088;11.886;2023-12-20T15:29:19;8.50;;;3.35;;
27424;SDS011;15244;49.088;11.886;2023-12-20T15:34:24;4.25;;;1.67;;
27424;SDS011;15244;49.088;11.886;2023-12-20T15:39:29;2.90;;;1.60;;
27424;SDS011;15244;49.088;11.886;2023-12-20T15:44:36;5.97;;;1.35;;
27424;SDS011;15244;49.088;11.886;2023-12-20T15:49:40;3.25;;;1.67;;
27424;SDS011;15244;49.088;11.886;2023-12-20T15:54:45;3.70;;;1.50;;
27424;SDS011;15244;49.088;11.886;2023-12-20T15:59:50;4.90;;;1.77;;
27424;SDS011;15244;49.088;11.886;2023-12-20T16:04:53;3.72;;;1.98;;
27424;SDS011;15244;49.088;11.886;2023-12-20T16:09:57;2.13;;;1.63;;
27424;SDS011;15244;49.088;11.886;2023-12-20T16:15:02;4.20;;;1.90;;
27424;SDS011;15244;49.088;11.886;2023-12-20T16:20:16;5.25;;;1.83;;
27424;SDS011;15244;49.088;11.886;2023-12-20T16:25:22;3.25;;;1.38;;
27424;SDS011;15244;49.088;11.886;2023-12-20T16:30:26;3.72;;;1.73;;
27424;SDS011;15244;49.088;11.886;2023-12-20T16:35:28;2.88;;;1.58;;
27424;SDS011;15244;49.088;11.886;2023-12-20T16:40:30;3.90;;;2.35;;
27424;SDS011;15244;49.088;11.886;2023-12-20T16:45:44;5.00;;;2.53;;
27424;SDS011;15244;49.088;11.886;2023-12-20T16:50:48;4.97;;;2.33;;
27424;SDS011;15244;49.088;11.886;2023-12-20T16:55:50;3.03;;;2.10;;
27424;SDS011;15244;49.088;11.886;2023-12-20T17:00:56;3.63;;;1.85;;
27424;SDS011;15244;49.088;11.886;2023-12-20T17:06:03;2.33;;;1.70;;
27424;SDS011;15244;49.088;11.886;2023-12-20T17:11:04;5.78;;;1.80;;
27424;SDS011;15244;49.088;11.886;2023-12-20T17:16:08;4.07;;;1.80;;
27424;SDS011;15244;49.088;11.886;2023-12-20T17:21:10;3.70;;;1.40;;
27424;SDS011;15244;49.088;11.886;2023-12-20T17:26:14;2.55;;;1.40;;
27424;SDS011;15244;49.088;11.886;2023-12-20T17:31:16;4.05;;;1.60;;
27424;SDS011;15244;49.088;11.886;2023-12-20T17:36:18;4.60;;;1.80;;
27424;SDS011;15244;49.088;11.886;2023-12-20T17:41:20;3.95;;;1.63;;
27424;SDS011;15244;49.088;11.886;2023-12-20T17:46:24;1.77;;;1.55;;
27424;SDS011;15244;49.088;11.886;2023-12-20T17:51:30;3.72;;;1.98;;
27424;SDS011;15244;49.088;11.886;2023-12-20T17:56:33;3.78;;;1.88;;
27424;SDS011;15244;49.088;11.886;2023-12-20T18:01:37;3.97;;;2.10;;
27424;SDS011;15244;49.088;11.886;2023-12-20T18:06:43;3.50;;;1.58;;
27424;SDS011;15244;49.088;11.886;2023-12-20T18:11:49;4.30;;;2.10;;
27424;SDS011;15244;49.088;11.886;2023-12-20T18:16:55;4.30;;;1.77;;
27424;SDS011;15244;49.088;11.886;2023-12-20T18:21:57;2.75;;;1.83;;
27424;SDS011;15244;49.088;11.886;2023-12-20T18:27:00;4.68;;;2.00;;
27424;SDS011;15244;49.088;11.886;2023-12-20T18:32:01;3.22;;;2.25;;
27424;SDS011;15244;49.088;11.886;2023-12-20T18:37:03;2.80;;;1.95;;
27424;SDS011;15244;49.088;11.886;2023-12-20T18:42:07;7.03;;;2.42;;
27424;SDS011;15244;49.088;11.886;2023-12-20T18:47:09;4.85;;;1.95;;
27424;SDS011;15244;49.088;11.886;2023-12-20T18:52:13;5.95;;;1.80;;
27424;SDS011;15244;49.088;11.886;2023-12-20T18:57:17;2.88;;;1.90;;
27424;SDS011;15244;49.088;11.886;2023-12-20T19:02:21;3.13;;;1.90;;
27424;SDS011;15244;49.088;11.886;2023-12-20T19:07:26;4.53;;;2.05;;
27424;SDS011;15244;49.088;11.886;2023-12-20T19:12:27;2.65;;;1.40;;
27424;SDS011;15244;49.088;11.886;2023-12-20T19:17:29;3.95;;;1.88;;
27424;SDS011;15244;49.088;11.886;2023-12-20T19:22:31;5.93;;;1.88;;
27424;SDS011;15244;49.088;11.886;2023-12-20T19:27:35;2.10;;;1.90;;
27424;SDS011;15244;49.088;11.886;2023-12-20T19:32:37;4.88;;;1.77;;
27424;SDS011;15244;49.088;11.886;2023-12-20T19:37:41;4.25;;;1.88;;
27424;SDS011;15244;49.088;11.886;2023-12-20T19:42:48;5.13;;;2.08;;
27424;SDS011;15244;49.088;11.886;2023-12-20T19:47:52;3.70;;;1.75;;
27424;SDS011;15244;49.088;11.886;2023-12-20T19:52:56;2.47;;;2.20;;
27424;SDS011;15244;49.088;11.886;2023-12-20T19:57:58;6.22;;;1.80;;
27424;SDS011;15244;49.088;11.886;2023-12-20T20:03:03;3.53;;;1.70;;
27424;SDS011;15244;49.088;11.886;2023-12-20T20:08:07;3.58;;;1.52;;
27424;SDS011;15244;49.088;11.886;2023-12-20T20:13:09;3.38;;;1.40;;
27424;SDS011;15244;49.088;11.886;2023-12-20T20:18:12;2.17;;;1.55;;
27424;SDS011;15244;49.088;11.886;2023-12-20T20:23:19;2.97;;;1.20;;
27424;SDS011;15244;49.088;11.886;2023-12-20T20:28:20;2.17;;;1.40;;
27424;SDS011;15244;49.088;11.886;2023-12-20T20:33:36;6.63;;;1.75;;
27424;SDS011;15244;49.088;11.886;2023-12-20T20:38:38;1.58;;;1.00;;
27424;SDS011;15244;49.088;11.886;2023-12-20T20:43:42;4.10;;;1.77;;
27424;SDS011;15244;49.088;11.886;2023-12-20T20:48:46;1.52;;;1.42;;
27424;SDS011;15244;49.088;11.886;2023-12-20T20:53:56;4.32;;;1.50;;
27424;SDS011;15244;49.088;11.886;2023-12-20T20:59:12;1.40;;;1.25;;
27424;SDS011;15244;49.088;11.886;2023-12-20T21:04:16;1.83;;;1.35;;
27424;SDS011;15244;49.088;11.886;2023-12-20T21:09:18;4.10;;;1.45;;
27424;SDS011;15244;49.088;11.886;2023-12-20T21:14:21;2.30;;;1.60;;
27424;SDS011;15244;49.088;11.886;2023-12-20T21:19:23;2.30;;;1.60;;
27424;SDS011;15244;49.088;11.886;2023-12-20T21:24:25;2.42;;;1.88;;
27424;SDS011;15244;49.088;11.886;2023-12-20T21:29:27;2.67;;;1.50;;
27424;SDS011;15244;49.088;11.886;2023-12-20T21:34:29;4.75;;;2.08;;
27424;SDS011;15244;49.088;11.886;2023-12-20T21:39:33;6.20;;;2.00;;
27424;SDS011;15244;49.088;11.886;2023-12-20T21:44:37;6.30;;;1.85;;
27424;SDS011;15244;49.088;11.886;2023-12-20T21:49:40;2.17;;;1.65;;
27424;SDS011;15244;49.088;11.886;2023-12-20T21:54:43;4.40;;;2.50;;
27424;SDS011;15244;49.088;11.886;2023-12-20T21:59:48;2.78;;;1.88;;
27424;SDS011;15244;49.088;11.886;2023-12-20T22:04:52;3.53;;;2.63;;
27424;SDS011;15244;49.088;11.886;2023-12-20T22:09:54;3.67;;;2.50;;
27424;SDS011;15244;49.088;11.886;2023-12-20T22:14:58;5.47;;;2.35;;
27424;SDS011;15244;49.088;11.886;2023-12-20T22:20:00;4.32;;;2.72;;
27424;SDS011;15244;49.088;11.886;2023-12-20T22:25:02;3.70;;;2.50;;
27424;SDS011;15244;49.088;11.886;2023-12-20T22:30:10;3.80;;;2.80;;
27424;SDS011;15244;49.088;11.886;2023-12-20T22:35:16;2.42;;;2.22;;
27424;SDS011;15244;49.088;11.886;2023-12-20T22:40:18;4.70;;;2.40;;
27424;SDS011;15244;49.088;11.886;2023-12-20T22:45:21;3.58;;;2.28;;
27424;SDS011;15244;49.088;11.886;2023-12-20T22:50:28;3.90;;;2.10;;
27424;SDS011;15244;49.088;11.886;2023-12-20T22:55:31;2.65;;;2.05;;
27424;SDS011;15244;49.088;11.886;2023-12-20T23:00:38;5.47;;;2.35;;
27424;SDS011;15244;49.088;11.886;2023-12-20T23:05:41;3.70;;;1.88;;
27424;SDS011;15244;49.088;11.886;2023-12-20T23:10:43;6.47;;;3.00;;
27424;SDS011;15244;49.088;11.886;2023-12-20T23:15:47;6.13;;;1.83;;
27424;SDS011;15244;49.088;11.886;2023-12-20T23:20:56;3.38;;;1.75;;
27424;SDS011;15244;49.088;11.886;2023-12-20T23:25:57;4.72;;;2.20;;
27424;SDS011;15244;49.088;11.886;2023-12-20T23:31:00;5.72;;;3.00;;
27424;SDS011;15244;49.088;11.886;2023-12-20T23:36:02;5.85;;;1.40;;
27424;SDS011;15244;49.088;11.886;2023-12-20T23:41:09;2.30;;;1.63;;
27424;SDS011;15244;49.088;11.886;2023-12-20T23:46:15;4.22;;;1.70;;
27424;SDS011;15244;49.088;11.886;2023-12-20T23:51:20;2.25;;;1.30;;
27424;SDS011;15244;49.088;11.886;2023-12-20T23:56:24;3.25;;;1.58;;
